Time;durP1;ratioP1;P1;durP2;ratioP2;P2;SDS_P1;SDS_P2;PMS_P1;PMS_P2;Temp;Humidity;BMP_temperature;BMP_pressure;BME280_temperature;BME280_humidity;BME280_pressure;Samples;Min_cycle;Max_cycle;Signal;HPM_P1;HPM_P2
2023/03/10 00:02:01;;;;;;;5.45;2.83;;;;;;;16.02;62.42;99776.59;5038375;28;20044;-85
2023/03/10 00:04:27;;;;;;;3.13;2.00;;;;;;;15.96;62.69;99777.28;5038447;28;20081;-84
2023/03/10 00:06:52;;;;;;;2.38;1.55;;;;;;;15.98;62.93;99777.09;5039215;28;20045;-85
2023/03/10 00:09:18;;;;;;;2.75;2.10;;;;;;;15.90;63.01;99780.72;5038246;28;20036;-85
2023/03/10 00:11:43;;;;;;;4.40;1.88;;;;;;;15.87;63.25;99789.19;5027433;28;20160;-86
2023/03/10 00:14:09;;;;;;;7.25;3.80;;;;;;;15.83;63.86;99790.59;5013455;28;20026;-85
2023/03/10 00:16:34;;;;;;;10.88;3.45;;;;;;;15.80;63.95;99782.81;5013494;28;20030;-86
2023/03/10 00:19:00;;;;;;;4.35;2.50;;;;;;;15.79;63.94;99797.41;4995092;28;20022;-87
2023/03/10 00:21:28;;;;;;;5.80;2.30;;;;;;;15.75;64.25;99774.34;5012639;28;20046;-86
2023/03/10 00:23:55;;;;;;;4.38;2.60;;;;;;;15.74;64.23;99772.69;5012010;28;20049;-86
2023/03/10 00:26:22;;;;;;;3.88;2.50;;;;;;;15.73;64.39;99777.28;5011619;28;20125;-85
2023/03/10 00:28:47;;;;;;;3.35;2.00;;;;;;;15.76;64.55;99786.91;5011716;28;20033;-85
2023/03/10 00:31:15;;;;;;;4.53;2.30;;;;;;;15.73;64.56;99773.72;5012216;28;20112;-87
2023/03/10 00:33:41;;;;;;;3.05;1.63;;;;;;;15.71;64.55;99770.34;4994578;28;20033;-87
2023/03/10 00:36:11;;;;;;;2.42;1.65;;;;;;;15.71;64.95;99789.31;5011870;28;20088;-87
2023/03/10 00:38:38;;;;;;;6.97;2.33;;;;;;;15.70;65.32;99793.88;5011554;28;20125;-87
2023/03/10 00:41:07;;;;;;;6.30;2.00;;;;;;;15.63;65.91;99782.06;4993765;28;20045;-87
2023/03/10 00:43:33;;;;;;;4.30;2.33;;;;;;;15.58;66.27;99775.50;5011845;28;20041;-85
2023/03/10 00:45:58;;;;;;;2.88;1.70;;;;;;;15.52;66.05;99768.91;5017425;28;20071;-85
2023/03/10 00:48:24;;;;;;;5.30;1.60;;;;;;;15.57;66.33;99780.06;4994307;28;20667;-86
2023/03/10 00:50:50;;;;;;;2.13;1.85;;;;;;;15.56;66.71;99786.53;5014262;28;20033;-86
2023/03/10 00:53:15;;;;;;;3.72;1.90;;;;;;;15.59;66.44;99785.31;5011908;28;20417;-87
2023/03/10 00:55:41;;;;;;;3.83;2.03;;;;;;;15.45;67.25;99794.16;5012299;28;20030;-85
2023/03/10 00:58:06;;;;;;;2.40;1.60;;;;;;;15.31;68.19;99786.75;5014214;28;20026;-85
2023/03/10 01:00:32;;;;;;;7.75;2.00;;;;;;;15.36;68.04;99793.34;5013139;28;20555;-86
2023/03/10 01:02:58;;;;;;;2.83;2.03;;;;;;;15.37;67.96;99788.78;5012116;28;20056;-85
2023/03/10 01:05:24;;;;;;;5.63;1.80;;;;;;;15.44;67.90;99792.47;5031568;28;20030;-85
2023/03/10 01:07:49;;;;;;;2.00;1.50;;;;;;;15.50;67.35;99786.38;5035319;28;20054;-85
2023/03/10 01:10:15;;;;;;;4.32;1.77;;;;;;;15.51;67.55;99793.47;5017597;28;20124;-85
2023/03/10 01:12:40;;;;;;;2.15;1.73;;;;;;;15.49;67.38;99781.97;5010771;28;20025;-85
2023/03/10 01:15:07;;;;;;;5.45;2.22;;;;;;;15.63;67.34;99802.91;4993895;28;20041;-85
2023/03/10 01:17:32;;;;;;;6.15;2.00;;;;;;;15.57;67.32;99806.31;5010478;28;20068;-86
2023/03/10 01:19:58;;;;;;;4.07;2.58;;;;;;;15.49;67.84;99800.94;5011244;28;20720;-85
2023/03/10 01:22:23;;;;;;;4.35;2.15;;;;;;;15.53;67.52;99795.00;5011172;28;20088;-87
2023/03/10 01:24:49;;;;;;;5.80;2.58;;;;;;;15.53;67.64;99796.88;5011535;28;20034;-84
2023/03/10 01:27:14;;;;;;;3.30;2.95;;;;;;;15.46;67.71;99793.13;5011104;28;20481;-87
2023/03/10 01:29:40;;;;;;;6.95;2.80;;;;;;;15.45;67.32;99777.88;4993170;28;20066;-85
2023/03/10 01:32:05;;;;;;;4.80;2.70;;;;;;;15.45;67.31;99795.00;5010875;28;20116;-86
2023/03/10 01:34:31;;;;;;;6.53;3.05;;;;;;;15.52;67.55;99790.59;5011203;28;20045;-85
2023/03/10 01:36:57;;;;;;;2.83;2.50;;;;;;;15.45;67.75;99789.56;5010868;28;20026;-84
2023/03/10 01:39:22;;;;;;;8.30;2.63;;;;;;;15.42;67.48;99784.50;5010843;28;20404;-85
2023/03/10 01:41:47;;;;;;;6.97;2.88;;;;;;;15.50;67.60;99795.34;5010676;28;20512;-85
2023/03/10 01:44:19;;;;;;;7.18;2.70;;;;;;;15.47;67.32;99792.13;5011073;28;20033;-87
2023/03/10 01:46:52;;;;;;;4.53;2.63;;;;;;;15.50;67.68;99797.22;5011646;28;20030;-85
2023/03/10 01:49:20;;;;;;;14.27;2.55;;;;;;;15.49;67.33;99793.66;5011263;28;20037;-85
2023/03/10 01:51:52;;;;;;;5.40;3.42;;;;;;;15.47;67.69;99792.97;4992879;28;20406;-85
2023/03/10 01:54:23;;;;;;;3.13;2.58;;;;;;;15.46;67.31;99801.25;4992752;28;20041;-85
2023/03/10 01:56:51;;;;;;;6.07;3.05;;;;;;;15.49;67.49;99806.38;5011523;28;20164;-86
2023/03/10 01:59:17;;;;;;;4.15;2.97;;;;;;;15.51;67.15;99815.16;5018381;28;20045;-84
2023/03/10 02:01:44;;;;;;;9.90;3.35;;;;;;;15.36;67.80;99815.00;5012314;28;20021;-85
2023/03/10 02:04:32;;;;;;;4.45;2.50;;;;;;;15.39;68.01;99822.78;5027850;28;20025;-85
2023/03/10 02:06:58;;;;;;;3.55;2.72;;;;;;;15.41;67.89;99822.63;5031240;28;20060;-85
2023/03/10 02:09:24;;;;;;;4.30;2.80;;;;;;;15.42;67.85;99827.88;5017534;28;20026;-86
2023/03/10 02:11:50;;;;;;;5.40;2.85;;;;;;;15.41;67.88;99830.75;5013566;28;20468;-84
2023/03/10 02:14:17;;;;;;;4.88;2.67;;;;;;;15.33;68.05;99839.75;5011327;28;20034;-85
2023/03/10 02:16:42;;;;;;;4.25;2.83;;;;;;;15.23;68.55;99839.09;5010711;28;20087;-86
2023/03/10 02:19:30;;;;;;;8.88;3.00;;;;;;;15.16;68.61;99835.41;5010625;28;20025;-86
2023/03/10 02:22:05;;;;;;;6.80;2.63;;;;;;;15.07;69.23;99850.00;5010295;28;20046;-86
2023/03/10 02:24:59;;;;;;;3.88;2.88;;;;;;;15.06;69.29;99854.56;5010909;28;20030;-87
2023/03/10 02:27:28;;;;;;;2.58;2.28;;;;;;;15.10;69.30;99850.50;4988123;28;20174;-85
2023/03/10 02:30:00;;;;;;;7.10;2.30;;;;;;;15.07;69.06;99840.00;4991330;28;20039;-86
2023/03/10 02:32:30;;;;;;;4.85;3.00;;;;;;;15.04;68.98;99856.59;4992704;28;20038;-86
2023/03/10 02:34:56;;;;;;;5.72;2.85;;;;;;;15.04;69.27;99862.03;4996671;28;20046;-86
2023/03/10 02:37:25;;;;;;;9.32;3.60;;;;;;;15.03;69.21;99862.19;4998524;28;20046;-86
2023/03/10 02:39:51;;;;;;;4.90;3.00;;;;;;;15.02;69.06;99846.94;5013606;28;20131;-86
2023/03/10 02:42:17;;;;;;;8.05;3.03;;;;;;;14.98;69.74;99857.25;5005406;28;20557;-85
2023/03/10 02:44:46;;;;;;;8.85;3.35;;;;;;;14.87;69.81;99844.09;4995660;28;20066;-86
2023/03/10 02:47:11;;;;;;;4.43;3.03;;;;;;;14.98;69.61;99861.84;4976088;28;20039;-86
2023/03/10 02:49:39;;;;;;;5.55;3.30;;;;;;;14.87;69.57;99860.34;4992189;28;20081;-85
2023/03/10 02:52:11;;;;;;;3.67;2.95;;;;;;;14.86;69.54;99847.81;4992537;28;20046;-85
2023/03/10 02:54:36;;;;;;;8.57;2.97;;;;;;;14.77;69.96;99848.00;4992147;28;20030;-85
2023/03/10 02:57:02;;;;;;;9.70;3.70;;;;;;;14.84;69.99;99844.44;4976930;28;20034;-85
2023/03/10 02:59:27;;;;;;;5.68;3.10;;;;;;;14.82;69.88;99838.34;5014862;28;20124;-87
2023/03/10 03:01:53;;;;;;;4.38;3.33;;;;;;;14.81;70.10;99846.63;5016863;28;20030;-85
2023/03/10 03:04:18;;;;;;;10.05;4.13;;;;;;;14.81;70.31;99849.34;5034852;28;20025;-86
2023/03/10 03:06:44;;;;;;;3.92;2.83;;;;;;;14.73;70.07;99850.19;5036174;28;20041;-84
2023/03/10 03:09:09;;;;;;;10.52;3.10;;;;;;;14.78;70.30;99864.06;5015609;28;20034;-86
2023/03/10 03:11:35;;;;;;;7.97;2.88;;;;;;;14.81;70.20;99863.72;5015325;28;20065;-85
2023/03/10 03:14:00;;;;;;;6.65;2.63;;;;;;;14.73;70.60;99863.75;5016301;28;20030;-86
2023/03/10 03:16:26;;;;;;;7.47;3.92;;;;;;;14.62;70.97;99864.06;5013661;28;20400;-85
2023/03/10 03:18:51;;;;;;;6.35;3.40;;;;;;;14.49;71.38;99877.28;5013806;28;20045;-87
2023/03/10 03:21:17;;;;;;;5.18;3.65;;;;;;;14.41;71.67;99850.19;5013288;28;20037;-84
2023/03/10 03:23:44;;;;;;;4.65;3.33;;;;;;;14.49;71.58;99866.44;5015550;28;20137;-86
2023/03/10 03:26:21;;;;;;;7.10;3.22;;;;;;;14.54;71.76;99870.34;5016362;28;20423;-85
2023/03/10 03:28:47;;;;;;;8.05;3.45;;;;;;;14.48;72.03;99871.00;5015752;28;20037;-86
2023/03/10 03:31:18;;;;;;;4.50;3.15;;;;;;;14.49;72.11;99871.84;5016212;28;21054;-85
2023/03/10 03:33:43;;;;;;;8.35;3.53;;;;;;;14.49;72.05;99871.84;5015983;28;20033;-85
2023/03/10 03:36:09;;;;;;;7.32;4.20;;;;;;;14.45;72.61;99878.59;5014976;28;20026;-85
2023/03/10 03:38:34;;;;;;;6.03;3.50;;;;;;;14.42;72.74;99877.09;5014204;28;20458;-87
2023/03/10 03:41:00;;;;;;;7.55;3.35;;;;;;;14.34;72.83;99876.25;4995387;28;20061;-86
2023/03/10 03:43:26;;;;;;;5.72;4.03;;;;;;;14.31;73.29;99887.38;5014586;28;20129;-85
2023/03/10 03:45:52;;;;;;;8.73;3.70;;;;;;;14.27;73.56;99877.88;4997673;28;20109;-85
2023/03/10 03:48:17;;;;;;;7.05;3.78;;;;;;;14.31;73.10;99879.25;5014968;28;20579;-85
2023/03/10 03:50:43;;;;;;;7.18;3.78;;;;;;;14.39;72.76;99876.56;5014000;28;20026;-86
2023/03/10 03:53:08;;;;;;;6.40;4.07;;;;;;;14.44;72.96;99883.16;5014403;28;20092;-85
2023/03/10 03:55:34;;;;;;;5.50;3.72;;;;;;;14.40;72.96;99887.22;4997091;28;20033;-86
2023/03/10 03:57:59;;;;;;;7.20;4.05;;;;;;;14.41;73.16;99879.94;5015002;28;20461;-86
2023/03/10 04:00:24;;;;;;;11.13;4.35;;;;;;;14.41;73.08;99885.34;5016742;28;20129;-87
2023/03/10 04:02:50;;;;;;;6.80;4.03;;;;;;;14.34;73.27;99879.75;5027567;28;20037;-86
2023/03/10 04:05:16;;;;;;;4.30;3.67;;;;;;;14.40;73.67;99879.09;5032706;28;20033;-85
2023/03/10 04:07:43;;;;;;;6.22;3.80;;;;;;;14.37;73.21;99868.59;5021518;28;20025;-86
2023/03/10 04:10:11;;;;;;;6.43;4.72;;;;;;;14.43;73.44;99875.22;5018409;28;20064;-86
2023/03/10 04:12:37;;;;;;;11.70;5.53;;;;;;;14.38;73.62;99869.47;4991765;28;20104;-85
2023/03/10 04:15:03;;;;;;;7.05;4.80;;;;;;;14.47;73.40;99876.56;5030214;28;20018;-85
2023/03/10 04:17:29;;;;;;;6.03;4.32;;;;;;;14.45;73.57;99887.56;5037307;28;20034;-85
2023/03/10 04:19:54;;;;;;;10.65;5.22;;;;;;;14.37;73.59;99884.03;5037020;28;20048;-85
2023/03/10 04:22:20;;;;;;;10.65;6.22;;;;;;;14.42;73.84;99884.34;5037210;28;20114;-86
2023/03/10 04:24:45;;;;;;;8.20;4.90;;;;;;;14.38;73.63;99877.56;5015443;28;20074;-87
2023/03/10 04:27:11;;;;;;;7.97;5.70;;;;;;;14.32;74.39;99891.75;5036514;28;20033;-96
2023/03/10 04:29:37;;;;;;;8.27;5.00;;;;;;;14.29;74.50;99894.78;5031509;28;20022;-95
2023/03/10 04:32:04;;;;;;;11.30;5.72;;;;;;;14.30;74.53;99894.63;5032087;28;20022;-90
2023/03/10 04:37:04;;;;;;;7.88;4.63;;;;;;;14.25;74.89;99888.84;5116627;23;20232;-87
2023/03/10 04:39:31;;;;;;;11.45;5.47;;;;;;;14.22;74.90;99891.06;5302278;23;20149;-94
2023/03/10 04:41:56;;;;;;;7.78;5.25;;;;;;;14.35;74.91;99896.84;5008911;28;20038;-94
2023/03/10 04:44:22;;;;;;;10.82;5.50;;;;;;;14.42;74.59;99889.75;5009141;28;20045;-90
2023/03/10 04:46:47;;;;;;;19.60;4.70;;;;;;;14.39;74.56;99884.69;4995834;28;20042;-94
2023/03/10 04:49:14;;;;;;;19.67;4.80;;;;;;;14.35;74.54;99873.34;5013052;28;20033;-90
2023/03/10 04:51:40;;;;;;;10.60;5.03;;;;;;;14.44;74.24;99871.50;4989412;28;20053;-84
2023/03/10 04:54:05;;;;;;;10.68;4.15;;;;;;;14.42;74.10;99862.72;4995417;28;20034;-90
2023/03/10 04:56:31;;;;;;;7.35;4.35;;;;;;;14.45;73.88;99855.09;4996142;28;20038;-86
2023/03/10 04:58:56;;;;;;;8.20;4.35;;;;;;;14.43;73.64;99854.41;4994472;28;20108;-85
2023/03/10 05:01:22;;;;;;;9.55;4.70;;;;;;;14.44;73.38;99858.81;4978803;28;20160;-82
2023/03/10 05:03:47;;;;;;;8.65;3.90;;;;;;;14.42;73.38;99865.41;4997638;28;20027;-82
2023/03/10 05:06:16;;;;;;;6.35;4.15;;;;;;;14.42;72.99;99855.44;4996480;28;20041;-82
2023/03/10 05:08:41;;;;;;;7.72;3.88;;;;;;;14.33;73.48;99866.41;4989176;28;20100;-82
2023/03/10 05:11:07;;;;;;;4.45;3.10;;;;;;;14.33;73.27;99858.31;4988314;28;20414;-82
2023/03/10 05:13:33;;;;;;;5.70;3.40;;;;;;;14.29;73.49;99846.94;4989754;28;20126;-81
2023/03/10 05:15:59;;;;;;;10.95;3.88;;;;;;;14.44;72.78;99858.81;4990877;28;20101;-83
2023/03/10 05:18:24;;;;;;;26.63;5.05;;;;;;;14.45;72.91;99873.19;4993226;28;20109;-84
2023/03/10 05:20:54;;;;;;;19.70;3.90;;;;;;;14.47;72.77;99876.56;4993393;28;20046;-83
2023/03/10 05:23:20;;;;;;;10.93;4.40;;;;;;;14.59;72.34;99894.16;4994643;28;20042;-85
2023/03/10 05:25:46;;;;;;;14.20;3.88;;;;;;;14.66;71.76;99892.50;4998166;28;20041;-87
2023/03/10 05:28:12;;;;;;;5.90;3.30;;;;;;;14.66;72.03;99906.03;5011592;28;20033;-85
2023/03/10 05:30:37;;;;;;;12.88;3.63;;;;;;;14.69;71.83;99894.84;5006084;28;20574;-89
2023/03/10 05:33:03;;;;;;;13.27;4.30;;;;;;;14.72;71.54;99905.34;4996634;28;20026;-87
2023/03/10 05:35:28;;;;;;;6.68;3.50;;;;;;;14.81;70.95;99896.22;4994700;28;20022;-85
2023/03/10 05:37:53;;;;;;;11.52;3.50;;;;;;;14.87;71.25;99891.97;5001610;28;20034;-88
2023/03/10 05:40:21;;;;;;;9.05;4.28;;;;;;;14.90;70.43;99897.03;5005436;28;20057;-89
2023/03/10 05:42:47;;;;;;;6.75;3.35;;;;;;;14.87;70.61;99886.56;4994267;28;20042;-87
2023/03/10 05:45:13;;;;;;;9.43;3.60;;;;;;;14.86;70.42;99893.81;4994487;28;20038;-88
2023/03/10 05:47:39;;;;;;;10.18;4.00;;;;;;;14.89;70.59;99907.03;4992777;28;20513;-89
2023/03/10 05:50:05;;;;;;;12.98;3.95;;;;;;;14.81;70.69;99920.56;5002357;28;20054;-87
2023/03/10 05:52:31;;;;;;;15.32;4.30;;;;;;;14.84;70.71;99919.38;4998227;28;20030;-88
2023/03/10 05:54:56;;;;;;;8.38;4.07;;;;;;;14.85;70.80;99921.94;4997363;28;20041;-88
2023/03/10 05:57:22;;;;;;;10.55;5.30;;;;;;;14.88;71.05;99929.72;4998476;28;20042;-89
2023/03/10 05:59:47;;;;;;;10.27;6.18;;;;;;;15.00;70.73;99925.66;5005005;28;20022;-84
2023/03/10 06:02:13;;;;;;;18.60;6.43;;;;;;;15.06;70.42;99927.69;5016180;28;20069;-84
2023/03/10 06:04:38;;;;;;;20.25;6.60;;;;;;;15.09;70.30;99938.16;5011897;28;20033;-90
2023/03/10 06:07:04;;;;;;;11.70;6.32;;;;;;;15.04;70.24;99937.00;4994658;28;20037;-88
2023/03/10 06:09:31;;;;;;;26.73;6.25;;;;;;;15.11;70.66;99936.13;4994649;28;20030;-87
2023/03/10 06:11:57;;;;;;;10.27;4.88;;;;;;;15.15;70.42;99945.63;4994622;28;20030;-87
2023/03/10 06:14:24;;;;;;;12.20;5.28;;;;;;;15.17;70.06;99940.84;4993701;28;20027;-86
2023/03/10 06:16:52;;;;;;;9.43;4.70;;;;;;;15.31;69.87;99960.16;4991924;28;20064;-89
2023/03/10 06:19:18;;;;;;;16.98;6.13;;;;;;;15.25;69.88;99950.84;4993904;28;20022;-88
2023/03/10 06:21:43;;;;;;;9.45;5.22;;;;;;;15.37;69.42;99965.75;4991668;28;20189;-88
2023/03/10 06:24:08;;;;;;;7.90;5.28;;;;;;;15.46;69.06;99958.44;4991233;28;20038;-88
2023/03/10 06:26:34;;;;;;;10.82;4.05;;;;;;;15.34;68.82;99948.97;4986614;28;20089;-93
2023/03/10 06:28:59;;;;;;;11.80;5.28;;;;;;;15.44;69.53;99968.63;4982561;28;20405;-90
2023/03/10 06:31:25;;;;;;;13.18;4.53;;;;;;;15.50;68.96;99959.81;4983715;28;20084;-92
2023/03/10 06:33:51;;;;;;;16.13;4.18;;;;;;;15.49;68.74;99958.13;5014941;28;20045;-86
2023/03/10 06:36:18;;;;;;;11.35;4.60;;;;;;;15.41;68.33;99948.09;4991072;28;20030;-90
2023/03/10 06:38:44;;;;;;;10.85;5.10;;;;;;;15.49;68.72;99963.53;4983367;28;20066;-94
2023/03/10 06:41:09;;;;;;;6.72;4.35;;;;;;;15.50;68.76;99962.53;4973500;28;20109;-92
2023/03/10 06:43:35;;;;;;;17.45;3.63;;;;;;;15.65;68.17;99968.94;4990014;28;20037;-89
2023/03/10 06:46:03;;;;;;;14.13;4.45;;;;;;;15.79;68.03;99979.91;5001145;28;20065;-89
2023/03/10 06:48:29;;;;;;;7.13;3.60;;;;;;;15.86;67.86;99977.34;4999842;28;20023;-87
2023/03/10 06:50:54;;;;;;;20.25;6.85;;;;;;;15.99;67.32;99983.03;5020042;28;20040;-90
2023/03/10 06:53:21;;;;;;;25.92;11.10;;;;;;;16.08;66.84;99995.59;4998514;28;20482;-90
2023/03/10 06:56:02;;;;;;;27.02;14.77;;;;;;;15.90;66.77;99977.84;5009293;28;20034;-89
2023/03/10 06:58:29;;;;;;;28.85;13.88;;;;;;;15.97;66.73;99995.94;5002435;28;20074;-85
2023/03/10 07:00:55;;;;;;;33.20;15.63;;;;;;;16.07;66.54;99993.03;5015473;28;20057;-85
2023/03/10 07:03:20;;;;;;;38.47;15.98;;;;;;;16.12;66.14;99994.19;5012484;28;20026;-90
2023/03/10 07:05:46;;;;;;;32.70;16.58;;;;;;;16.15;65.97;100001.97;5003786;28;20034;-87
2023/03/10 07:08:12;;;;;;;38.38;15.80;;;;;;;16.16;65.70;100003.69;5003510;28;20041;-90
2023/03/10 07:10:37;;;;;;;27.45;14.88;;;;;;;16.15;65.68;99999.25;5009356;28;20029;-91
2023/03/10 07:13:03;;;;;;;26.65;15.10;;;;;;;16.29;65.37;100001.25;4994390;28;20038;-87
2023/03/10 07:15:29;;;;;;;20.13;12.38;;;;;;;16.42;64.97;99984.38;4994529;28;20030;-90
2023/03/10 07:17:55;;;;;;;31.25;12.95;;;;;;;16.49;64.39;99979.94;4998199;28;20023;-89
2023/03/10 07:20:21;;;;;;;16.25;9.88;;;;;;;16.53;64.12;99988.56;4997765;28;20022;-92
2023/03/10 07:22:47;;;;;;;19.83;8.80;;;;;;;16.64;63.78;99985.47;4995652;28;20030;-89
2023/03/10 07:25:12;;;;;;;21.40;8.80;;;;;;;16.58;63.67;99981.59;4995077;28;20506;-92
2023/03/10 07:27:38;;;;;;;21.05;8.38;;;;;;;16.74;63.48;99984.22;4994827;28;20034;-91
2023/03/10 07:30:04;;;;;;;22.55;9.27;;;;;;;16.84;63.01;99973.97;4995082;28;20375;-90
2023/03/10 07:32:30;;;;;;;14.55;8.52;;;;;;;16.90;62.63;99966.97;4993039;28;20037;-91
2023/03/10 07:34:55;;;;;;;23.92;7.78;;;;;;;17.05;62.35;99969.75;4998762;28;20026;-92
2023/03/10 07:37:21;;;;;;;17.05;6.45;;;;;;;17.19;62.14;99967.06;4995766;28;20045;-92
2023/03/10 07:39:46;;;;;;;9.85;5.72;;;;;;;17.30;61.60;99963.94;4994476;28;20058;-92
2023/03/10 07:42:12;;;;;;;14.50;6.63;;;;;;;17.45;61.34;99963.09;4997776;28;20026;-88
2023/03/10 07:44:37;;;;;;;15.50;6.13;;;;;;;17.57;60.85;99964.34;4995666;28;20042;-92
2023/03/10 07:47:03;;;;;;;35.08;6.53;;;;;;;17.68;60.65;99972.06;4994181;28;20101;-91
2023/03/10 07:49:28;;;;;;;12.48;5.82;;;;;;;17.67;60.24;99959.50;4993445;28;20108;-92
2023/03/10 07:51:53;;;;;;;18.58;5.63;;;;;;;17.77;60.24;99968.22;5001023;28;20022;-89
2023/03/10 07:54:19;;;;;;;17.42;5.65;;;;;;;17.88;60.04;99968.63;5005735;28;20478;-89
2023/03/10 07:56:44;;;;;;;11.80;6.00;;;;;;;17.89;59.48;99985.75;5007223;28;20494;-89
2023/03/10 07:59:10;;;;;;;11.10;5.72;;;;;;;17.93;59.26;99976.19;5017780;28;20033;-86
2023/03/10 08:01:35;;;;;;;14.48;5.65;;;;;;;17.94;58.92;99967.00;5018130;28;20034;-85
2023/03/10 08:04:00;;;;;;;23.75;5.53;;;;;;;18.02;59.01;99979.66;4998929;28;20076;-90
2023/03/10 08:06:29;;;;;;;6.80;3.80;;;;;;;18.07;58.61;99974.50;4994477;28;20502;-89
2023/03/10 08:08:55;;;;;;;14.60;5.60;;;;;;;18.23;58.35;99977.00;4993957;28;20045;-91
2023/03/10 08:11:21;;;;;;;20.83;5.60;;;;;;;18.36;58.00;99978.03;4993963;28;20106;-90
2023/03/10 08:13:47;;;;;;;23.70;5.68;;;;;;;18.40;57.65;99973.91;4996514;28;20031;-87
2023/03/10 08:16:15;;;;;;;9.05;5.10;;;;;;;18.46;57.23;99984.03;4995420;28;20029;-88
2023/03/10 08:18:41;;;;;;;29.80;7.95;;;;;;;18.63;56.94;99989.25;4995129;28;20040;-92
2023/03/10 08:21:07;;;;;;;19.90;6.43;;;;;;;18.67;56.89;99979.69;4993659;28;20405;-91
2023/03/10 08:23:34;;;;;;;16.20;6.40;;;;;;;18.85;56.11;99982.81;4993151;28;20574;-88
2023/03/10 08:26:05;;;;;;;10.13;5.00;;;;;;;18.93;55.78;99985.41;4993967;28;20033;-92
2023/03/10 08:28:31;;;;;;;22.38;7.63;;;;;;;18.90;55.57;99985.78;4996377;28;20096;-90
2023/03/10 08:31:07;;;;;;;26.10;10.18;;;;;;;18.91;55.31;99966.53;5000194;28;20049;-89
2023/03/10 08:33:32;;;;;;;15.93;7.57;;;;;;;19.02;55.04;99974.19;5009261;28;20030;-90
2023/03/10 08:36:07;;;;;;;11.98;7.63;;;;;;;19.03;54.57;99972.31;5017482;28;20141;-85
2023/03/10 08:38:33;;;;;;;16.60;6.63;;;;;;;19.11;54.52;99976.78;5016758;28;20045;-90
2023/03/10 08:41:11;;;;;;;9.90;5.70;;;;;;;19.12;54.13;99962.94;5018335;28;20094;-89
2023/03/10 08:43:37;;;;;;;11.15;6.53;;;;;;;19.26;54.12;99970.22;5004231;28;20061;-91
2023/03/10 08:46:03;;;;;;;17.65;6.85;;;;;;;19.35;53.65;99966.31;4996857;28;20464;-92
2023/03/10 08:48:28;;;;;;;14.13;5.78;;;;;;;19.46;53.24;99973.13;4995345;28;20059;-92
2023/03/10 08:50:54;;;;;;;13.60;5.05;;;;;;;19.53;52.74;99966.69;5007147;28;20018;-90
2023/03/10 08:53:19;;;;;;;13.18;5.03;;;;;;;19.47;52.61;99967.50;5006086;28;20030;-88
2023/03/10 08:55:45;;;;;;;12.38;5.82;;;;;;;19.51;52.69;99979.66;5007649;28;20023;-89
2023/03/10 08:58:10;;;;;;;9.85;5.18;;;;;;;19.66;52.42;99959.66;5017256;28;20026;-84
2023/03/10 09:00:36;;;;;;;18.23;5.68;;;;;;;19.80;52.27;99953.22;5017213;28;20031;-87
2023/03/10 09:03:02;;;;;;;8.80;3.47;;;;;;;19.79;51.14;99946.91;5012109;28;20018;-85
2023/03/10 09:05:27;;;;;;;7.10;3.47;;;;;;;19.90;51.22;99951.84;4996730;28;20027;-91
2023/03/10 09:07:53;;;;;;;7.97;3.80;;;;;;;20.00;50.35;99956.91;4997521;28;20038;-90
2023/03/10 09:10:19;;;;;;;9.85;3.47;;;;;;;20.02;49.96;99943.91;4994896;28;20513;-92
2023/03/10 09:12:44;;;;;;;14.98;3.97;;;;;;;20.14;50.02;99953.22;4994259;28;20026;-92
2023/03/10 09:15:10;;;;;;;13.75;5.90;;;;;;;20.33;49.78;99947.03;4998488;28;20022;-89
2023/03/10 09:17:35;;;;;;;22.67;6.45;;;;;;;20.32;49.64;99939.88;4995166;28;20537;-91
2023/03/10 09:20:00;;;;;;;11.50;5.40;;;;;;;20.45;49.33;99945.41;4992922;28;20023;-89
2023/03/10 09:22:26;;;;;;;11.90;4.35;;;;;;;20.42;48.70;99926.69;4992701;28;20032;-93
2023/03/10 09:24:51;;;;;;;10.57;4.47;;;;;;;20.39;48.73;99929.81;4992471;28;20053;-91
2023/03/10 09:27:17;;;;;;;9.10;4.03;;;;;;;20.53;47.81;99945.19;4997568;28;20037;-88
2023/03/10 09:29:42;;;;;;;5.50;3.33;;;;;;;20.38;48.22;99925.41;4993944;28;20038;-91
2023/03/10 09:32:08;;;;;;;10.60;4.53;;;;;;;20.61;47.85;99939.53;4999769;28;20045;-90
2023/03/10 09:34:34;;;;;;;7.80;3.00;;;;;;;20.66;46.67;99938.09;4991764;28;20026;-90
2023/03/10 09:36:59;;;;;;;8.27;3.85;;;;;;;20.70;46.00;99931.16;4992281;28;20030;-90
2023/03/10 09:39:25;;;;;;;9.10;3.72;;;;;;;20.67;45.22;99934.31;4990236;28;20054;-90
2023/03/10 09:42:19;;;;;;;6.43;2.60;;;;;;;20.73;45.18;99925.28;4993183;28;20033;-90
2023/03/10 09:44:47;;;;;;;8.15;3.65;;;;;;;20.91;45.23;99933.72;4992634;28;20509;-92
2023/03/10 09:47:25;;;;;;;10.30;3.92;;;;;;;20.85;44.84;99913.53;4992950;28;20041;-91
2023/03/10 09:50:06;;;;;;;11.82;3.00;;;;;;;20.89;43.50;99913.94;4999617;28;20506;-90
2023/03/10 09:52:57;;;;;;;6.90;3.05;;;;;;;20.86;43.60;99914.34;5004988;28;20034;-88
2023/03/10 09:55:39;;;;;;;22.98;4.28;;;;;;;20.86;43.69;99912.47;4954089;28;20344;-86
2023/03/10 09:58:14;;;;;;;8.85;3.90;;;;;;;20.89;43.95;99922.97;4955978;28;20031;-88
2023/03/10 10:00:42;;;;;;;8.93;2.30;;;;;;;20.58;47.13;99919.97;4932075;28;20038;-88
2023/03/10 10:03:20;;;;;;;15.57;5.00;;;;;;;20.47;48.10;99921.44;4949414;29;20062;-90
2023/03/10 10:05:50;;;;;;;10.50;3.47;;;;;;;20.05;49.40;99940.78;4952115;29;20044;-88
2023/03/10 10:08:18;;;;;;;17.52;3.67;;;;;;;19.59;50.44;99920.56;4951438;29;20147;-89
2023/03/10 10:10:48;;;;;;;17.02;6.03;;;;;;;19.44;51.49;99931.59;4951456;29;20028;-88
2023/03/10 10:13:15;;;;;;;16.02;4.25;;;;;;;19.33;51.94;99932.94;4935415;29;20048;-88
2023/03/10 10:15:46;;;;;;;10.80;3.13;;;;;;;19.33;51.73;99927.47;4951881;29;20507;-87
2023/03/10 10:18:25;;;;;;;8.73;2.65;;;;;;;19.21;52.16;99912.69;4951746;29;20392;-86
2023/03/10 10:21:12;;;;;;;17.10;3.03;;;;;;;19.08;52.44;99918.03;4951395;29;20047;-88
2023/03/10 10:23:39;;;;;;;13.23;3.90;;;;;;;18.98;53.07;99906.66;4949569;29;20063;-90
2023/03/10 10:26:25;;;;;;;21.13;3.80;;;;;;;18.84;53.43;99910.28;4950645;29;20051;-88
2023/03/10 10:29:06;;;;;;;11.25;2.60;;;;;;;18.72;53.32;99901.78;4943836;29;20028;-89
2023/03/10 10:31:32;;;;;;;6.53;2.20;;;;;;;18.40;54.19;99878.59;4944832;28;20124;-91
2023/03/10 10:34:00;;;;;;;6.93;2.67;;;;;;;18.52;53.92;99889.00;4993311;28;20478;-90
2023/03/10 10:36:34;;;;;;;10.00;2.90;;;;;;;18.64;53.55;99893.75;4992215;28;20037;-88
2023/03/10 10:39:02;;;;;;;16.90;3.20;;;;;;;18.70;53.43;99898.41;4998304;28;20477;-92
2023/03/10 10:41:33;;;;;;;12.23;2.20;;;;;;;18.78;53.23;99902.88;4993791;28;20047;-89
2023/03/10 10:44:14;;;;;;;15.75;3.30;;;;;;;18.80;53.01;99898.09;4997576;28;20026;-87
2023/03/10 10:46:53;;;;;;;11.43;3.17;;;;;;;18.88;52.44;99895.22;5002543;28;20050;-88
2023/03/10 10:49:23;;;;;;;9.82;3.53;;;;;;;18.86;52.50;99883.69;5000030;28;20026;-89
2023/03/10 10:51:59;;;;;;;5.50;2.40;;;;;;;18.63;52.70;99874.88;5003915;28;20073;-91
2023/03/10 10:54:53;;;;;;;14.60;3.05;;;;;;;18.57;52.86;99891.97;4995284;28;20038;-85
2023/03/10 10:57:26;;;;;;;22.25;4.03;;;;;;;18.63;52.70;99877.59;5018879;28;20030;-89
2023/03/10 10:59:52;;;;;;;17.30;4.20;;;;;;;18.60;52.76;99872.53;5007716;28;20088;-89
2023/03/10 11:02:31;;;;;;;35.78;5.90;;;;;;;18.68;52.34;99861.53;4997143;28;20034;-92
2023/03/10 11:05:12;;;;;;;7.78;2.28;;;;;;;18.67;52.08;99848.94;4996032;28;20037;-91
2023/03/10 11:07:38;;;;;;;28.08;4.35;;;;;;;18.93;52.06;99862.78;4995767;28;20434;-89
2023/03/10 11:10:13;;;;;;;9.38;2.78;;;;;;;19.00;51.16;99856.34;4995135;28;20030;-91
2023/03/10 11:13:03;;;;;;;24.52;3.33;;;;;;;18.99;50.84;99853.81;4998053;28;20386;-91
2023/03/10 11:15:37;;;;;;;10.43;3.53;;;;;;;19.07;50.63;99842.78;4995998;28;20034;-89
2023/03/10 11:18:17;;;;;;;14.10;2.60;;;;;;;18.96;50.81;99837.84;4995032;28;20092;-90
2023/03/10 11:20:58;;;;;;;14.05;3.42;;;;;;;18.85;51.03;99828.34;4993015;28;20031;-86
2023/03/10 11:23:37;;;;;;;10.70;3.10;;;;;;;19.00;50.98;99830.97;4994244;28;20038;-89
2023/03/10 11:26:16;;;;;;;11.38;2.80;;;;;;;19.10;50.43;99823.31;4996993;28;20030;-89
2023/03/10 11:28:48;;;;;;;31.35;5.25;;;;;;;19.02;50.81;99813.38;4993805;28;20058;-90
2023/03/10 11:31:29;;;;;;;25.77;7.03;;;;;;;19.13;50.73;99822.91;4994848;28;20022;-90
2023/03/10 11:34:22;;;;;;;11.73;3.20;;;;;;;19.09;50.48;99816.16;4994499;28;20035;-91
2023/03/10 11:37:03;;;;;;;14.45;7.50;;;;;;;19.32;50.19;99821.34;4934140;29;20067;-89